Time;durP1;ratioP1;P1;durP2;ratioP2;P2;SDS_P1;SDS_P2;PMS_P1;PMS_P2;Temp;Humidity;BMP_temperature;BMP_pressure;BME280_temperature;BME280_humidity;BME280_pressure;Samples;Min_cycle;Max_cycle;Signal;HPM_P1;HPM_P2
2023/11/19 00:01:24;;;;;;;2.95;1.60;;;;;;;8.98;61.67;100580.34;5066378;28;20037;-85
2023/11/19 00:03:53;;;;;;;2.70;1.40;;;;;;;8.99;61.39;100582.97;5045057;28;20061;-83
2023/11/19 00:06:22;;;;;;;2.25;1.40;;;;;;;9.00;61.19;100565.56;5068697;28;20091;-84
2023/11/19 00:08:52;;;;;;;3.00;1.63;;;;;;;9.07;61.49;100561.34;5049008;28;20053;-84
2023/11/19 00:11:20;;;;;;;2.47;1.33;;;;;;;9.08;61.45;100568.50;5052383;28;20069;-85
2023/11/19 00:13:48;;;;;;;2.65;1.30;;;;;;;9.11;61.51;100564.66;5071814;28;20033;-83
2023/11/19 00:16:16;;;;;;;2.03;1.30;;;;;;;9.13;61.54;100589.09;5086828;28;20049;-83
2023/11/19 00:18:44;;;;;;;1.67;1.10;;;;;;;9.16;61.83;100594.31;5068825;28;20108;-82
2023/11/19 00:21:12;;;;;;;2.53;1.20;;;;;;;9.19;61.50;100597.63;5055586;28;20048;-84
2023/11/19 00:23:40;;;;;;;2.88;1.10;;;;;;;9.22;61.85;100602.81;5046150;28;20508;-83
2023/11/19 00:26:10;;;;;;;1.77;1.10;;;;;;;9.28;61.78;100606.88;5066137;28;20041;-84
2023/11/19 00:28:39;;;;;;;2.92;1.20;;;;;;;9.28;61.87;100599.56;5046932;28;20052;-84
2023/11/19 00:31:07;;;;;;;2.60;1.20;;;;;;;9.32;62.02;100591.97;5048430;28;20511;-83
2023/11/19 00:33:37;;;;;;;3.28;1.60;;;;;;;9.34;61.38;100590.81;5062966;28;20048;-84
2023/11/19 00:36:15;;;;;;;2.72;1.38;;;;;;;9.36;61.59;100586.09;5064119;28;20115;-82
2023/11/19 00:38:43;;;;;;;2.40;1.40;;;;;;;9.40;61.50;100589.47;5041487;28;20052;-84
2023/11/19 00:41:15;;;;;;;2.75;1.40;;;;;;;9.40;61.89;100582.16;5066819;28;20060;-84
2023/11/19 00:43:43;;;;;;;2.63;1.40;;;;;;;9.42;61.38;100585.59;5045589;28;20561;-84
2023/11/19 00:46:11;;;;;;;2.80;1.50;;;;;;;9.44;61.81;100583.59;5048693;28;20051;-84
2023/11/19 00:48:39;;;;;;;3.10;1.50;;;;;;;9.46;61.55;100578.88;5050183;28;20075;-84
2023/11/19 00:51:08;;;;;;;2.30;1.30;;;;;;;9.51;61.57;100585.78;5065264;28;20040;-83
2023/11/19 00:53:36;;;;;;;3.13;1.30;;;;;;;9.52;61.91;100580.19;5049440;28;20037;-84
2023/11/19 00:56:04;;;;;;;2.78;1.27;;;;;;;9.54;61.67;100575.47;5064828;28;20041;-84
2023/11/19 00:58:34;;;;;;;2.70;1.10;;;;;;;9.58;61.93;100573.31;5062012;28;20049;-85
2023/11/19 01:01:02;;;;;;;1.98;1.05;;;;;;;9.57;61.88;100580.69;5060036;28;20057;-83
2023/11/19 01:03:29;;;;;;;1.83;0.90;;;;;;;9.61;61.88;100573.06;5059592;28;20580;-84
2023/11/19 01:05:59;;;;;;;1.38;0.70;;;;;;;9.64;61.74;100572.81;5062656;28;20051;-84
2023/11/19 01:08:28;;;;;;;1.75;0.90;;;;;;;9.64;62.23;100559.13;5045743;28;20045;-83
2023/11/19 01:10:55;;;;;;;1.42;0.77;;;;;;;9.68;62.06;100561.44;5049173;28;20123;-84
2023/11/19 01:13:24;;;;;;;1.10;0.70;;;;;;;9.70;62.27;100554.00;5046685;28;20061;-84
2023/11/19 01:15:56;;;;;;;1.00;0.60;;;;;;;9.74;62.43;100555.44;5065401;28;20041;-83
2023/11/19 01:18:24;;;;;;;0.70;0.50;;;;;;;9.75;62.22;100559.03;5045577;28;20124;-83
2023/11/19 01:20:52;;;;;;;1.48;0.50;;;;;;;9.79;62.54;100552.31;5061270;28;20060;-84
2023/11/19 01:23:20;;;;;;;1.30;0.60;;;;;;;9.84;62.50;100545.41;5065184;28;20040;-84
2023/11/19 01:25:48;;;;;;;0.50;0.50;;;;;;;9.88;62.68;100551.50;5065427;28;20408;-85
2023/11/19 01:28:16;;;;;;;1.70;0.60;;;;;;;9.93;62.76;100548.31;5056952;28;20475;-84
2023/11/19 01:30:44;;;;;;;0.80;0.43;;;;;;;9.95;62.92;100549.94;5066519;28;20057;-84
2023/11/19 01:33:13;;;;;;;0.60;0.50;;;;;;;10.00;62.80;100552.25;5052905;28;20106;-84
2023/11/19 01:35:41;;;;;;;1.30;0.60;;;;;;;10.04;62.53;100556.44;5054264;28;20037;-84
2023/11/19 01:38:09;;;;;;;1.20;0.50;;;;;;;10.08;62.93;100556.00;5065820;28;20049;-83
2023/11/19 01:40:38;;;;;;;0.75;0.60;;;;;;;10.12;62.64;100559.34;5042348;28;20045;-83
2023/11/19 01:43:06;;;;;;;0.93;0.45;;;;;;;10.13;63.01;100559.22;5064291;28;20041;-84
2023/11/19 01:45:34;;;;;;;0.80;0.52;;;;;;;10.20;62.84;100554.03;5044504;28;20036;-84
2023/11/19 01:48:04;;;;;;;0.95;0.73;;;;;;;10.24;63.13;100559.09;5048681;28;20064;-85
2023/11/19 01:50:35;;;;;;;0.40;0.32;;;;;;;10.29;63.13;100555.09;5045839;28;20045;-84
2023/11/19 01:53:03;;;;;;;0.90;0.55;;;;;;;10.31;62.58;100551.22;5057910;28;20455;-84
2023/11/19 01:55:31;;;;;;;1.30;0.50;;;;;;;10.34;63.17;100552.78;5060092;28;20056;-83
2023/11/19 01:58:02;;;;;;;1.05;0.40;;;;;;;10.40;62.45;100560.44;5065010;28;20072;-84
2023/11/19 02:00:33;;;;;;;0.35;0.30;;;;;;;10.42;62.78;100551.06;5054483;28;20049;-83
2023/11/19 02:03:01;;;;;;;1.20;0.60;;;;;;;10.44;63.01;100557.28;5074318;28;20041;-84
2023/11/19 02:05:32;;;;;;;1.17;0.40;;;;;;;10.47;62.59;100558.88;5068110;28;20452;-84
2023/11/19 02:08:02;;;;;;;1.25;0.68;;;;;;;10.50;62.74;100553.09;5051923;28;20038;-84
2023/11/19 02:10:31;;;;;;;1.13;0.60;;;;;;;10.52;62.65;100548.34;5052141;28;20560;-83
2023/11/19 02:13:02;;;;;;;2.72;0.63;;;;;;;10.55;62.96;100542.66;5047941;28;20420;-83
2023/11/19 02:15:33;;;;;;;2.08;0.60;;;;;;;10.55;62.96;100539.91;5056733;28;20413;-85
2023/11/19 02:18:19;;;;;;;0.75;0.60;;;;;;;10.63;62.94;100530.97;5037024;28;20534;-84
2023/11/19 02:20:47;;;;;;;1.17;0.50;;;;;;;10.61;62.41;100517.44;5049376;28;20045;-84
2023/11/19 02:23:21;;;;;;;1.88;0.70;;;;;;;10.66;62.98;100508.78;5069877;28;20060;-84
2023/11/19 02:26:02;;;;;;;1.27;0.80;;;;;;;10.69;63.02;100494.81;5068087;28;20041;-84
2023/11/19 02:28:32;;;;;;;2.70;0.90;;;;;;;10.68;62.47;100483.00;5065349;28;20041;-84
2023/11/19 02:31:00;;;;;;;3.38;1.00;;;;;;;10.70;62.45;100491.09;5068180;28;20045;-84
2023/11/19 02:33:29;;;;;;;2.13;0.90;;;;;;;10.72;62.79;100500.03;5064522;28;20124;-85
2023/11/19 02:35:57;;;;;;;2.65;1.20;;;;;;;10.74;62.46;100495.25;5047565;28;20272;-83
2023/11/19 02:38:25;;;;;;;2.83;1.20;;;;;;;10.76;62.35;100498.72;5061924;28;20049;-84
2023/11/19 02:40:53;;;;;;;3.33;1.05;;;;;;;10.75;62.53;100489.63;5068096;28;20057;-84
2023/11/19 02:43:21;;;;;;;2.53;1.40;;;;;;;10.80;62.84;100489.22;5051230;28;20535;-84
2023/11/19 02:45:51;;;;;;;2.42;1.13;;;;;;;10.83;62.83;100488.91;5070198;28;20300;-84
2023/11/19 02:48:19;;;;;;;3.15;1.20;;;;;;;10.82;62.36;100500.88;5067645;28;20563;-84
2023/11/19 02:50:48;;;;;;;5.55;1.48;;;;;;;10.83;62.81;100495.25;5052944;28;20087;-84
2023/11/19 02:53:16;;;;;;;3.05;1.15;;;;;;;10.86;62.36;100494.09;5050363;28;20036;-84
2023/11/19 02:55:48;;;;;;;2.17;1.00;;;;;;;10.87;62.39;100491.22;5063635;28;20049;-83
2023/11/19 02:58:23;;;;;;;3.53;1.20;;;;;;;10.90;62.72;100501.88;5067745;28;20041;-85
2023/11/19 03:00:57;;;;;;;2.83;1.23;;;;;;;10.90;62.81;100490.91;5062473;28;20052;-84
2023/11/19 03:03:30;;;;;;;3.05;1.20;;;;;;;10.93;62.25;100504.31;5051881;28;20047;-83
2023/11/19 03:05:59;;;;;;;7.38;1.67;;;;;;;10.94;62.58;100499.72;5052129;28;20102;-83
2023/11/19 03:08:27;;;;;;;3.40;1.13;;;;;;;10.96;62.29;100479.41;5068407;28;20037;-83
2023/11/19 03:10:55;;;;;;;4.32;1.50;;;;;;;10.96;62.70;100478.53;5056977;28;20047;-83
2023/11/19 03:13:23;;;;;;;4.32;1.25;;;;;;;10.98;62.42;100482.84;5047254;28;20094;-83
2023/11/19 03:15:51;;;;;;;3.95;1.40;;;;;;;10.99;62.71;100476.34;5069346;28;20049;-82
2023/11/19 03:18:20;;;;;;;2.90;1.33;;;;;;;11.02;62.66;100472.47;5066570;28;20077;-84
2023/11/19 03:20:49;;;;;;;4.38;1.65;;;;;;;11.01;62.46;100468.00;5059781;28;20585;-83
2023/11/19 03:23:17;;;;;;;6.30;1.45;;;;;;;11.03;62.81;100476.06;5067763;28;20127;-83
2023/11/19 03:25:45;;;;;;;4.22;1.50;;;;;;;11.04;62.61;100461.38;5058533;28;20136;-84
2023/11/19 03:28:13;;;;;;;5.10;1.60;;;;;;;11.06;62.34;100465.66;5051489;28;20139;-83
2023/11/19 03:30:41;;;;;;;5.07;2.15;;;;;;;11.08;62.21;100468.25;5049996;28;20052;-83
2023/11/19 03:33:09;;;;;;;3.40;1.30;;;;;;;11.09;62.45;100461.78;5046855;28;20075;-82
2023/11/19 03:35:40;;;;;;;4.30;1.60;;;;;;;11.12;62.46;100456.88;5059979;28;20044;-82
2023/11/19 03:38:08;;;;;;;4.55;1.98;;;;;;;11.13;62.38;100471.44;5058424;28;20048;-82
2023/11/19 03:40:37;;;;;;;4.25;1.75;;;;;;;11.13;62.08;100483.28;5045944;28;20069;-83
2023/11/19 03:43:06;;;;;;;7.72;1.90;;;;;;;11.15;62.13;100478.47;5049303;28;20047;-84
2023/11/19 03:45:34;;;;;;;4.95;1.30;;;;;;;11.13;62.44;100475.06;5046265;28;20103;-83
2023/11/19 03:48:02;;;;;;;4.90;1.55;;;;;;;11.17;62.43;100479.22;5063196;28;20071;-83
2023/11/19 03:50:30;;;;;;;5.57;1.42;;;;;;;11.17;62.26;100483.81;5058045;28;20048;-85
2023/11/19 03:53:00;;;;;;;5.43;1.80;;;;;;;11.20;62.05;100489.88;5055668;28;20052;-83
2023/11/19 03:55:28;;;;;;;5.80;1.67;;;;;;;11.19;62.24;100484.53;5062434;28;20050;-83
2023/11/19 03:57:57;;;;;;;5.15;1.65;;;;;;;11.19;61.71;100490.03;5059478;28;20122;-83
2023/11/19 04:00:25;;;;;;;4.60;1.48;;;;;;;11.20;61.87;100495.34;5074983;28;20049;-84
2023/11/19 04:02:53;;;;;;;8.13;2.20;;;;;;;11.21;62.16;100501.72;5058938;28;20543;-82
2023/11/19 04:05:21;;;;;;;5.68;2.33;;;;;;;11.22;61.93;100504.31;5059579;28;20040;-85
2023/11/19 04:07:49;;;;;;;6.05;1.77;;;;;;;11.23;62.21;100505.13;5049434;28;20056;-85
2023/11/19 04:10:18;;;;;;;6.13;1.77;;;;;;;11.25;61.60;100506.72;5073290;28;20033;-84
2023/11/19 04:12:47;;;;;;;5.47;1.92;;;;;;;11.24;61.68;100484.94;5066135;28;20041;-83
2023/11/19 04:15:15;;;;;;;5.97;1.77;;;;;;;11.24;61.65;100499.50;5050230;28;20461;-83
2023/11/19 04:17:43;;;;;;;7.05;1.52;;;;;;;11.25;61.37;100489.44;5049031;28;20064;-83
2023/11/19 04:20:13;;;;;;;4.03;1.80;;;;;;;11.26;61.54;100485.69;5066598;28;20080;-84
2023/11/19 04:22:41;;;;;;;6.13;1.80;;;;;;;11.24;61.57;100483.06;5050228;28;20040;-83
2023/11/19 04:25:10;;;;;;;5.75;1.60;;;;;;;11.26;61.21;100496.63;5066206;28;20041;-85
2023/11/19 04:27:40;;;;;;;7.35;1.85;;;;;;;11.25;61.53;100493.03;5052474;28;20040;-83
2023/11/19 04:30:10;;;;;;;7.65;1.73;;;;;;;11.26;61.22;100508.47;5061000;28;20166;-85
2023/11/19 04:32:39;;;;;;;6.65;1.80;;;;;;;11.24;61.18;100507.72;5072414;28;20053;-85
2023/11/19 04:35:09;;;;;;;7.60;1.95;;;;;;;11.26;61.46;100507.59;5054377;28;20064;-85
2023/11/19 04:37:37;;;;;;;6.55;2.33;;;;;;;11.25;61.21;100511.34;5053289;28;20045;-85
2023/11/19 04:40:07;;;;;;;4.82;1.83;;;;;;;11.24;61.42;100505.00;5046010;28;20064;-85
2023/11/19 04:42:35;;;;;;;5.03;1.58;;;;;;;11.22;61.34;100496.09;5070078;28;20033;-85
2023/11/19 04:45:06;;;;;;;5.90;2.00;;;;;;;11.25;61.14;100509.47;5052414;28;20071;-81
2023/11/19 04:47:35;;;;;;;5.57;1.92;;;;;;;11.23;61.47;100514.22;5052709;28;20045;-85
2023/11/19 04:50:03;;;;;;;6.97;2.08;;;;;;;11.24;61.05;100506.88;5054781;28;20049;-82
2023/11/19 04:52:31;;;;;;;6.30;1.77;;;;;;;11.22;61.21;100501.56;5050937;28;20041;-83
2023/11/19 04:54:59;;;;;;;7.28;2.33;;;;;;;11.23;60.99;100494.19;5050700;28;20049;-83
2023/11/19 04:57:27;;;;;;;5.47;1.83;;;;;;;11.21;61.22;100493.50;5053375;28;20101;-82
2023/11/19 04:59:55;;;;;;;5.10;1.90;;;;;;;11.20;61.14;100498.09;5058021;28;20080;-82
2023/11/19 05:02:24;;;;;;;6.55;2.22;;;;;;;11.22;61.20;100512.53;5056000;28;20037;-84
2023/11/19 05:04:52;;;;;;;6.95;1.95;;;;;;;11.20;61.18;100508.19;5052016;28;20072;-85
2023/11/19 05:07:21;;;;;;;6.65;1.90;;;;;;;11.17;61.14;100498.38;5051844;28;20519;-83
2023/11/19 05:09:49;;;;;;;6.10;1.90;;;;;;;11.19;60.88;100506.47;5052001;28;20128;-85
2023/11/19 05:12:17;;;;;;;6.55;1.80;;;;;;;11.18;60.79;100507.47;5071372;28;20099;-83
2023/11/19 05:14:50;;;;;;;6.95;1.83;;;;;;;11.17;61.09;100503.00;5072374;28;20112;-83
2023/11/19 05:17:19;;;;;;;6.82;1.90;;;;;;;11.17;60.59;100503.84;5067246;28;20041;-82
2023/11/19 05:19:48;;;;;;;11.48;2.70;;;;;;;11.18;60.75;100527.50;5074097;28;20049;-83
2023/11/19 05:22:16;;;;;;;7.45;1.85;;;;;;;11.15;60.95;100516.81;5049305;28;20044;-81
2023/11/19 05:24:44;;;;;;;6.97;1.90;;;;;;;11.15;60.64;100527.78;5043331;28;20131;-83
2023/11/19 05:27:13;;;;;;;6.50;1.90;;;;;;;11.15;60.91;100516.81;5071053;28;20465;-83
2023/11/19 05:29:42;;;;;;;6.40;1.75;;;;;;;11.14;60.56;100517.84;5054710;28;20041;-83
2023/11/19 05:32:11;;;;;;;8.13;2.10;;;;;;;11.13;60.93;100532.56;5051357;28;20042;-82
2023/11/19 05:34:39;;;;;;;5.82;1.88;;;;;;;11.13;60.59;100529.81;5049945;28;20041;-83
2023/11/19 05:37:21;;;;;;;8.93;1.90;;;;;;;11.12;60.63;100536.31;5069827;28;20130;-84
2023/11/19 05:39:49;;;;;;;6.95;1.85;;;;;;;11.12;60.80;100533.56;5064276;28;20361;-82
2023/11/19 05:42:17;;;;;;;7.70;2.00;;;;;;;11.11;60.55;100533.72;5069580;28;20065;-80
2023/11/19 05:44:44;;;;;;;9.50;2.58;;;;;;;11.11;60.71;100530.97;5055198;28;20041;-85
2023/11/19 05:47:12;;;;;;;4.82;1.90;;;;;;;11.10;60.52;100538.31;5056517;28;20049;-83
2023/11/19 05:49:41;;;;;;;7.53;2.00;;;;;;;11.11;60.34;100542.78;5053460;28;20151;-84
2023/11/19 05:52:10;;;;;;;10.02;2.25;;;;;;;11.07;60.61;100535.00;5071761;28;20497;-84
2023/11/19 05:54:40;;;;;;;6.85;2.15;;;;;;;11.11;60.60;100534.59;5067421;28;20492;-82
2023/11/19 05:57:09;;;;;;;5.88;1.73;;;;;;;11.08;60.70;100534.84;5051985;28;20037;-82
2023/11/19 05:59:37;;;;;;;7.05;2.30;;;;;;;11.09;60.47;100533.84;5053619;28;20060;-86
2023/11/19 06:02:05;;;;;;;8.05;1.90;;;;;;;11.08;60.52;100531.25;5068687;28;20076;-83
2023/11/19 06:04:33;;;;;;;7.25;2.17;;;;;;;11.09;60.49;100533.00;5068964;28;20060;-83
2023/11/19 06:07:01;;;;;;;6.93;2.03;;;;;;;11.10;60.55;100542.94;5065952;28;20049;-82
2023/11/19 06:09:30;;;;;;;7.95;2.00;;;;;;;11.11;60.27;100550.16;5050991;28;20418;-83
2023/11/19 06:12:01;;;;;;;6.45;1.90;;;;;;;11.12;60.38;100551.88;5052345;28;20053;-82
2023/11/19 06:14:29;;;;;;;7.65;2.47;;;;;;;11.08;59.86;100550.44;5063068;28;20078;-83
2023/11/19 06:16:57;;;;;;;6.22;2.10;;;;;;;11.08;59.81;100544.94;5068398;28;20053;-83
2023/11/19 06:19:25;;;;;;;5.82;1.73;;;;;;;11.10;59.82;100567.59;5052214;28;20063;-84
2023/11/19 06:21:57;;;;;;;6.25;2.00;;;;;;;11.06;60.30;100556.03;5049876;28;20051;-84
2023/11/19 06:24:25;;;;;;;7.47;1.83;;;;;;;11.08;59.71;100562.25;5048547;28;20041;-84
2023/11/19 06:26:53;;;;;;;10.00;2.35;;;;;;;11.08;59.71;100558.63;5071241;28;20360;-84
2023/11/19 06:29:22;;;;;;;5.97;1.73;;;;;;;11.09;59.45;100560.38;5056245;28;20141;-83
2023/11/19 06:31:51;;;;;;;8.05;2.20;;;;;;;11.05;59.79;100546.13;5056360;28;20071;-82
2023/11/19 06:34:19;;;;;;;7.18;2.22;;;;;;;11.06;59.54;100552.47;5054720;28;20074;-84
2023/11/19 06:36:48;;;;;;;7.60;2.33;;;;;;;11.04;59.34;100551.75;5047115;28;20098;-82
2023/11/19 06:39:17;;;;;;;9.27;3.25;;;;;;;11.04;59.38;100557.22;5053443;28;20048;-85
2023/11/19 06:41:48;;;;;;;8.50;2.20;;;;;;;11.01;58.74;100543.81;5054617;28;20052;-84
2023/11/19 06:44:16;;;;;;;7.93;2.30;;;;;;;10.99;59.28;100549.41;5047185;28;20064;-85
2023/11/19 06:46:46;;;;;;;9.57;2.45;;;;;;;11.01;59.17;100552.03;5049471;28;20041;-85
2023/11/19 06:49:14;;;;;;;5.45;2.00;;;;;;;10.97;58.87;100555.06;5072044;28;20052;-85
2023/11/19 06:51:43;;;;;;;5.93;1.98;;;;;;;10.96;59.18;100561.56;5066001;28;20051;-82
2023/11/19 06:54:11;;;;;;;8.77;2.72;;;;;;;10.95;59.08;100565.28;5071024;28;20045;-81
2023/11/19 06:56:39;;;;;;;8.32;2.08;;;;;;;10.94;58.76;100560.81;5068797;28;20059;-83
2023/11/19 06:59:07;;;;;;;10.98;2.47;;;;;;;10.92;58.99;100557.34;5053308;28;20040;-83
2023/11/19 07:01:36;;;;;;;8.82;2.17;;;;;;;10.92;58.64;100554.63;5044414;28;20708;-84
2023/11/19 07:04:09;;;;;;;6.97;2.08;;;;;;;10.93;58.46;100547.28;5050140;28;20404;-85
2023/11/19 07:06:37;;;;;;;7.40;2.42;;;;;;;10.89;58.95;100549.44;5051307;28;20419;-83
2023/11/19 07:09:10;;;;;;;7.75;2.05;;;;;;;10.89;58.78;100545.84;5049961;28;20672;-83
2023/11/19 07:11:39;;;;;;;8.63;2.20;;;;;;;10.89;58.33;100543.09;5071687;28;20045;-83
2023/11/19 07:14:07;;;;;;;9.95;2.25;;;;;;;10.86;58.66;100546.13;5068937;28;20333;-83
2023/11/19 07:16:37;;;;;;;6.13;2.03;;;;;;;10.86;58.51;100547.00;5050259;28;20120;-84
2023/11/19 07:19:07;;;;;;;9.52;2.85;;;;;;;10.88;58.54;100557.81;5049430;28;20045;-82
2023/11/19 07:21:39;;;;;;;7.90;2.17;;;;;;;10.85;58.51;100553.47;5044113;28;20041;-84
2023/11/19 07:24:08;;;;;;;8.75;2.55;;;;;;;10.84;58.13;100567.28;5043136;28;20049;-83
2023/11/19 07:26:36;;;;;;;9.60;2.10;;;;;;;10.84;58.37;100559.94;5065528;28;20190;-83
2023/11/19 07:29:07;;;;;;;10.07;2.70;;;;;;;10.84;58.33;100570.03;5068073;28;20431;-84
2023/11/19 07:31:35;;;;;;;6.20;1.98;;;;;;;10.83;57.98;100562.81;5050605;28;20049;-83
2023/11/19 07:34:03;;;;;;;9.35;2.58;;;;;;;10.82;58.28;100563.81;5049922;28;20090;-83
2023/11/19 07:36:33;;;;;;;7.63;2.20;;;;;;;10.83;58.28;100566.41;5068735;28;20045;-83
2023/11/19 07:39:01;;;;;;;10.88;2.47;;;;;;;10.81;57.76;100557.47;5051049;28;20560;-83
2023/11/19 07:41:29;;;;;;;9.25;2.13;;;;;;;10.83;58.13;100568.28;5049817;28;20049;-83
2023/11/19 07:43:56;;;;;;;8.35;2.33;;;;;;;10.82;57.71;100575.63;5052157;28;20041;-82
2023/11/19 07:46:25;;;;;;;10.20;2.33;;;;;;;10.81;57.70;100579.38;5067064;28;20151;-82
2023/11/19 07:48:53;;;;;;;10.75;2.22;;;;;;;10.83;57.71;100590.19;5068293;28;20045;-82
2023/11/19 07:51:21;;;;;;;8.93;2.53;;;;;;;10.80;57.68;100587.75;5053006;28;20072;-83
2023/11/19 07:53:51;;;;;;;7.20;2.70;;;;;;;10.82;57.84;100600.28;5050971;28;20036;-83
2023/11/19 07:56:19;;;;;;;8.57;2.15;;;;;;;10.83;57.38;100603.88;5070811;28;20044;-82
2023/11/19 07:58:48;;;;;;;8.15;2.35;;;;;;;10.85;57.87;100612.81;5069749;28;20497;-83
2023/11/19 08:01:17;;;;;;;8.70;2.78;;;;;;;10.85;57.77;100619.16;5056338;28;20540;-82
2023/11/19 08:03:45;;;;;;;8.50;2.55;;;;;;;10.85;57.82;100621.03;5070695;28;20048;-83
2023/11/19 08:06:16;;;;;;;7.65;1.90;;;;;;;10.85;57.98;100630.13;5051336;28;20645;-83
2023/11/19 08:08:44;;;;;;;6.78;2.33;;;;;;;10.86;57.54;100631.00;5052789;28;20067;-83
2023/11/19 08:11:14;;;;;;;8.60;2.65;;;;;;;10.88;57.44;100635.31;5048481;28;20045;-83
2023/11/19 08:13:43;;;;;;;8.85;2.42;;;;;;;10.87;57.41;100619.03;5049619;28;20501;-83
2023/11/19 08:16:11;;;;;;;9.43;2.95;;;;;;;10.86;57.55;100631.84;5052383;28;20041;-83
2023/11/19 08:18:42;;;;;;;7.88;2.67;;;;;;;10.89;57.40;100655.34;5051022;28;20115;-84
2023/11/19 08:21:13;;;;;;;8.73;2.50;;;;;;;10.85;57.69;100645.69;5055232;28;20075;-83
2023/11/19 08:23:43;;;;;;;7.60;2.25;;;;;;;10.91;57.39;100667.00;5050515;28;20086;-83
2023/11/19 08:26:11;;;;;;;8.60;2.42;;;;;;;10.92;57.79;100666.00;5067592;28;20051;-84
2023/11/19 08:28:41;;;;;;;10.32;2.33;;;;;;;10.91;57.25;100665.13;5056084;28;20067;-83
2023/11/19 08:31:09;;;;;;;8.20;2.22;;;;;;;10.93;57.70;100659.53;5060051;28;20056;-84
2023/11/19 08:33:38;;;;;;;8.07;2.70;;;;;;;10.96;57.59;100659.25;5060991;28;20052;-85
2023/11/19 08:36:07;;;;;;;8.20;3.20;;;;;;;10.99;57.50;100661.69;5060867;28;20045;-85
2023/11/19 08:38:35;;;;;;;8.43;2.30;;;;;;;10.99;57.44;100662.56;5049313;28;20041;-85
2023/11/19 08:41:05;;;;;;;7.25;2.20;;;;;;;11.01;57.92;100645.13;5056681;28;20122;-84
2023/11/19 08:43:33;;;;;;;11.13;2.63;;;;;;;11.05;57.60;100652.06;5048436;28;20094;-83
2023/11/19 08:46:02;;;;;;;7.50;2.13;;;;;;;11.07;57.26;100641.81;5072489;28;20131;-83
2023/11/19 08:48:31;;;;;;;8.65;2.22;;;;;;;11.08;57.28;100652.63;5047590;28;20690;-84
2023/11/19 08:50:59;;;;;;;9.23;2.60;;;;;;;11.11;57.60;100655.09;5064880;28;20102;-84
2023/11/19 08:53:32;;;;;;;9.55;2.30;;;;;;;11.12;57.40;100655.97;5049901;28;20052;-84
2023/11/19 08:56:00;;;;;;;10.88;3.10;;;;;;;11.15;57.74;100666.59;5064936;28;20044;-83
2023/11/19 08:58:28;;;;;;;10.55;2.60;;;;;;;11.16;57.26;100649.16;5047324;28;20095;-83
2023/11/19 09:00:57;;;;;;;9.75;2.25;;;;;;;11.20;57.12;100661.59;5070721;28;20056;-83
2023/11/19 09:03:27;;;;;;;9.07;2.17;;;;;;;11.23;57.12;100664.00;5066431;28;20556;-84
2023/11/19 09:05:55;;;;;;;7.70;2.33;;;;;;;11.21;56.98;100657.84;5049812;28;20408;-84
2023/11/19 09:08:23;;;;;;;7.47;2.17;;;;;;;11.25;56.75;100662.00;5054343;28;20057;-82
2023/11/19 09:10:52;;;;;;;8.80;2.85;;;;;;;11.26;57.20;100661.88;5067172;28;20112;-83
2023/11/19 09:13:20;;;;;;;7.40;2.10;;;;;;;11.28;57.09;100664.47;5050509;28;20040;-86
2023/11/19 09:15:48;;;;;;;10.80;3.05;;;;;;;11.28;56.67;100646.16;5036877;28;20513;-84
2023/11/19 09:18:16;;;;;;;11.57;2.50;;;;;;;11.30;56.82;100657.84;5068238;28;20045;-84
2023/11/19 09:20:46;;;;;;;10.02;2.92;;;;;;;11.36;56.77;100661.88;5066064;28;20045;-84
2023/11/19 09:23:14;;;;;;;12.23;2.50;;;;;;;11.36;56.73;100662.75;5063662;28;20607;-85
2023/11/19 09:25:43;;;;;;;10.55;2.55;;;;;;;11.40;56.64;100662.44;5052123;28;20052;-86
2023/11/19 09:28:13;;;;;;;9.60;2.47;;;;;;;11.42;57.21;100657.69;5051522;28;20094;-87
2023/11/19 09:30:41;;;;;;;7.05;2.08;;;;;;;11.46;57.24;100657.25;5051463;28;20040;-86
2023/11/19 09:33:09;;;;;;;8.32;2.15;;;;;;;11.49;57.08;100658.84;5053387;28;20053;-86
2023/11/19 09:35:37;;;;;;;12.23;2.67;;;;;;;11.54;56.68;100657.41;5066856;28;20041;-84
2023/11/19 09:38:07;;;;;;;8.63;2.63;;;;;;;11.60;56.45;100655.94;5067359;28;20455;-84
2023/11/19 09:40:35;;;;;;;8.57;2.80;;;;;;;11.63;56.77;100652.97;5057297;28;20044;-85
2023/11/19 09:43:03;;;;;;;8.98;2.10;;;;;;;11.67;56.86;100668.09;5057522;28;20049;-85
2023/11/19 09:45:39;;;;;;;11.40;2.45;;;;;;;11.72;56.21;100658.41;5055550;28;20456;-86
2023/11/19 09:48:08;;;;;;;6.38;1.85;;;;;;;11.75;56.24;100668.22;5068790;28;20069;-86
2023/11/19 09:50:36;;;;;;;7.53;2.38;;;;;;;11.78;56.11;100667.06;5068755;28;20184;-84
2023/11/19 09:53:05;;;;;;;10.07;2.33;;;;;;;11.79;55.79;100650.47;5056332;28;20059;-82
2023/11/19 09:55:34;;;;;;;7.15;2.30;;;;;;;11.84;55.80;100661.00;5078184;28;20091;-82
2023/11/19 09:58:03;;;;;;;7.07;2.20;;;;;;;11.85;56.31;100660.84;5060110;28;20459;-82
2023/11/19 10:00:31;;;;;;;7.93;2.35;;;;;;;11.88;56.83;100657.81;5078550;28;20048;-81
2023/11/19 10:03:01;;;;;;;6.45;2.20;;;;;;;11.95;56.19;100660.81;5077695;28;20052;-81
2023/11/19 10:05:29;;;;;;;9.93;2.90;;;;;;;11.98;56.07;100658.63;5087724;28;20057;-84
2023/11/19 10:07:58;;;;;;;10.32;2.30;;;;;;;12.01;56.12;100661.09;5092024;28;20033;-83
2023/11/19 10:10:26;;;;;;;9.25;2.33;;;;;;;12.06;55.67;100655.16;5074991;28;20055;-85
2023/11/19 10:12:56;;;;;;;10.07;2.58;;;;;;;12.10;54.96;100664.81;5058054;28;20572;-85
2023/11/19 10:15:26;;;;;;;8.73;2.38;;;;;;;12.08;55.52;100645.75;5050642;28;20041;-85
2023/11/19 10:17:57;;;;;;;9.95;2.45;;;;;;;12.13;54.99;100648.03;5062696;28;20128;-84
2023/11/19 10:20:26;;;;;;;9.05;2.30;;;;;;;12.13;54.74;100634.34;5068620;28;20045;-86
2023/11/19 10:22:55;;;;;;;7.22;2.20;;;;;;;12.13;54.74;100635.19;5050900;28;20044;-85
2023/11/19 10:25:25;;;;;;;10.15;2.35;;;;;;;12.15;54.45;100632.31;5050641;28;20041;-85
2023/11/19 10:27:55;;;;;;;8.70;2.78;;;;;;;12.17;54.71;100641.25;5064735;28;20044;-85
2023/11/19 10:30:26;;;;;;;10.95;2.50;;;;;;;12.17;54.66;100635.78;5051266;28;20091;-85
2023/11/19 10:33:07;;;;;;;10.88;2.35;;;;;;;12.21;53.62;100644.59;5048002;28;20041;-85
2023/11/19 10:35:37;;;;;;;7.30;2.67;;;;;;;12.17;54.54;100644.00;5067415;28;20041;-85
2023/11/19 10:38:15;;;;;;;8.65;2.97;;;;;;;12.24;53.81;100647.00;5048032;28;20064;-86
2023/11/19 10:40:43;;;;;;;7.57;2.10;;;;;;;12.22;54.62;100638.91;5044177;28;20099;-84
2023/11/19 10:43:13;;;;;;;7.03;2.40;;;;;;;12.25;53.89;100641.38;5065268;28;20045;-85
2023/11/19 10:45:41;;;;;;;8.05;2.13;;;;;;;12.24;53.97;100642.38;5050363;28;20061;-85
2023/11/19 10:48:10;;;;;;;10.70;2.83;;;;;;;12.26;53.91;100634.88;5048060;28;20048;-85
2023/11/19 10:50:39;;;;;;;9.77;2.72;;;;;;;12.29;53.58;100634.59;5068223;28;20041;-84
2023/11/19 10:53:09;;;;;;;10.40;2.80;;;;;;;12.29;53.54;100642.81;5050444;28;20128;-84
2023/11/19 10:55:39;;;;;;;5.82;2.13;;;;;;;12.28;53.52;100632.00;5053710;28;20041;-82
2023/11/19 10:58:09;;;;;;;8.95;2.08;;;;;;;12.30;53.32;100640.91;5066473;28;20056;-83
2023/11/19 11:00:46;;;;;;;8.18;2.20;;;;;;;12.31;52.54;100638.03;5053789;28;20048;-83
2023/11/19 11:03:18;;;;;;;8.38;2.38;;;;;;;12.29;52.87;100629.09;5066842;28;20045;-83
2023/11/19 11:05:48;;;;;;;9.52;2.35;;;;;;;12.31;53.40;100634.41;5051281;28;20040;-83
2023/11/19 11:08:16;;;;;;;9.75;2.50;;;;;;;12.32;53.42;100630.66;5071605;28;20408;-82
2023/11/19 11:10:46;;;;;;;9.75;2.55;;;;;;;12.35;53.01;100628.47;5057108;28;20630;-81
2023/11/19 11:13:18;;;;;;;8.43;2.15;;;;;;;12.33;53.12;100626.91;5063598;28;20046;-82
2023/11/19 11:15:47;;;;;;;8.57;2.30;;;;;;;12.36;53.39;100629.34;5090642;28;20056;-83
2023/11/19 11:18:17;;;;;;;10.05;2.70;;;;;;;12.35;52.74;100611.16;5066579;28;20042;-82
2023/11/19 11:20:46;;;;;;;7.78;2.58;;;;;;;12.39;52.78;100626.28;5071463;28;20033;-82
2023/11/19 11:23:43;;;;;;;5.03;1.83;;;;;;;12.41;51.87;100633.34;5063066;28;20104;-83
2023/11/19 11:26:36;;;;;;;8.48;2.33;;;;;;;12.42;51.67;100628.72;5063371;28;20045;-83
2023/11/19 11:29:10;;;;;;;8.47;2.20;;;;;;;12.41;53.10;100630.63;5070289;28;20047;-83
2023/11/19 11:31:49;;;;;;;6.85;2.28;;;;;;;12.46;51.97;100621.91;5067322;28;20318;-84
2023/11/19 11:34:51;;;;;;;7.65;2.08;;;;;;;12.48;51.99;100614.41;5056086;28;20527;-84